sensor_id;sensor_type;location;lat;lon;timestamp;P1;durP1;ratioP1;P2;durP2;ratioP2
47603;SDS011;33326;51.116;6.900;2022-09-09T00:00:55;4.50;;;1.77;;
47603;SDS011;33326;51.116;6.900;2022-09-09T00:06:08;4.03;;;1.40;;
47603;SDS011;33326;51.116;6.900;2022-09-09T00:11:20;4.53;;;1.20;;
47603;SDS011;33326;51.116;6.900;2022-09-09T00:16:29;3.60;;;1.15;;
47603;SDS011;33326;51.116;6.900;2022-09-09T00:21:37;5.38;;;1.27;;
47603;SDS011;33326;51.116;6.900;2022-09-09T00:26:45;2.80;;;1.23;;
47603;SDS011;33326;51.116;6.900;2022-09-09T00:31:54;2.38;;;1.20;;
47603;SDS011;33326;51.116;6.900;2022-09-09T00:37:03;3.67;;;1.15;;
47603;SDS011;33326;51.116;6.900;2022-09-09T00:42:11;5.18;;;1.50;;
47603;SDS011;33326;51.116;6.900;2022-09-09T00:47:20;5.47;;;1.25;;
47603;SDS011;33326;51.116;6.900;2022-09-09T00:52:40;4.32;;;1.40;;
47603;SDS011;33326;51.116;6.900;2022-09-09T00:57:50;3.60;;;1.25;;
47603;SDS011;33326;51.116;6.900;2022-09-09T01:02:59;6.20;;;1.80;;
47603;SDS011;33326;51.116;6.900;2022-09-09T01:08:13;4.90;;;1.35;;
47603;SDS011;33326;51.116;6.900;2022-09-09T01:13:31;5.18;;;1.15;;
47603;SDS011;33326;51.116;6.900;2022-09-09T01:18:49;3.72;;;1.27;;
47603;SDS011;33326;51.116;6.900;2022-09-09T01:24:00;4.45;;;1.45;;
47603;SDS011;33326;51.116;6.900;2022-09-09T01:29:30;5.18;;;1.40;;
47603;SDS011;33326;51.116;6.900;2022-09-09T01:34:33;2.33;;;1.15;;
47603;SDS011;33326;51.116;6.900;2022-09-09T01:39:41;3.75;;;1.23;;
47603;SDS011;33326;51.116;6.900;2022-09-09T01:44:50;5.80;;;1.73;;
47603;SDS011;33326;51.116;6.900;2022-09-09T01:49:54;3.90;;;1.35;;
47603;SDS011;33326;51.116;6.900;2022-09-09T01:55:00;6.25;;;1.50;;
47603;SDS011;33326;51.116;6.900;2022-09-09T02:00:10;4.57;;;1.30;;
47603;SDS011;33326;51.116;6.900;2022-09-09T02:05:17;2.45;;;1.35;;
47603;SDS011;33326;51.116;6.900;2022-09-09T02:10:30;7.53;;;1.83;;
47603;SDS011;33326;51.116;6.900;2022-09-09T02:15:48;7.10;;;1.63;;
47603;SDS011;33326;51.116;6.900;2022-09-09T02:20:57;3.25;;;1.13;;
47603;SDS011;33326;51.116;6.900;2022-09-09T02:26:00;2.28;;;1.00;;
47603;SDS011;33326;51.116;6.900;2022-09-09T02:31:07;4.05;;;1.33;;
47603;SDS011;33326;51.116;6.900;2022-09-09T02:36:14;4.28;;;0.98;;
47603;SDS011;33326;51.116;6.900;2022-09-09T02:41:19;5.40;;;1.48;;
47603;SDS011;33326;51.116;6.900;2022-09-09T02:46:35;3.78;;;1.25;;
47603;SDS011;33326;51.116;6.900;2022-09-09T02:51:48;2.55;;;0.90;;
47603;SDS011;33326;51.116;6.900;2022-09-09T02:56:57;4.25;;;1.23;;
47603;SDS011;33326;51.116;6.900;2022-09-09T03:02:10;5.13;;;1.52;;
47603;SDS011;33326;51.116;6.900;2022-09-09T03:07:14;5.78;;;1.40;;
47603;SDS011;33326;51.116;6.900;2022-09-09T03:12:19;6.00;;;1.30;;
47603;SDS011;33326;51.116;6.900;2022-09-09T03:17:23;5.15;;;1.20;;
47603;SDS011;33326;51.116;6.900;2022-09-09T03:22:29;5.75;;;1.20;;
47603;SDS011;33326;51.116;6.900;2022-09-09T03:27:33;6.25;;;1.60;;
47603;SDS011;33326;51.116;6.900;2022-09-09T03:32:39;6.70;;;1.10;;
47603;SDS011;33326;51.116;6.900;2022-09-09T03:37:41;8.02;;;1.55;;
47603;SDS011;33326;51.116;6.900;2022-09-09T03:42:45;6.28;;;1.40;;
47603;SDS011;33326;51.116;6.900;2022-09-09T03:47:49;5.13;;;1.48;;
47603;SDS011;33326;51.116;6.900;2022-09-09T03:52:51;7.80;;;1.48;;
47603;SDS011;33326;51.116;6.900;2022-09-09T03:57:56;6.03;;;1.65;;
47603;SDS011;33326;51.116;6.900;2022-09-09T04:02:59;7.43;;;1.50;;
47603;SDS011;33326;51.116;6.900;2022-09-09T04:08:01;7.80;;;1.50;;
47603;SDS011;33326;51.116;6.900;2022-09-09T04:13:04;5.35;;;1.70;;
47603;SDS011;33326;51.116;6.900;2022-09-09T04:18:08;6.32;;;1.95;;
47603;SDS011;33326;51.116;6.900;2022-09-09T04:23:11;6.47;;;1.88;;
47603;SDS011;33326;51.116;6.900;2022-09-09T04:28:14;6.18;;;1.77;;
47603;SDS011;33326;51.116;6.900;2022-09-09T04:33:19;5.10;;;1.70;;
47603;SDS011;33326;51.116;6.900;2022-09-09T04:38:24;6.85;;;1.80;;
47603;SDS011;33326;51.116;6.900;2022-09-09T04:43:26;8.13;;;2.30;;
47603;SDS011;33326;51.116;6.900;2022-09-09T04:48:33;7.30;;;2.33;;
47603;SDS011;33326;51.116;6.900;2022-09-09T04:53:36;9.05;;;1.88;;
47603;SDS011;33326;51.116;6.900;2022-09-09T04:58:40;7.60;;;2.15;;
47603;SDS011;33326;51.116;6.900;2022-09-09T05:03:45;5.20;;;1.73;;
47603;SDS011;33326;51.116;6.900;2022-09-09T05:08:52;10.43;;;2.65;;
47603;SDS011;33326;51.116;6.900;2022-09-09T05:13:58;9.90;;;2.25;;
47603;SDS011;33326;51.116;6.900;2022-09-09T05:19:04;5.93;;;1.98;;
47603;SDS011;33326;51.116;6.900;2022-09-09T05:24:18;5.93;;;1.58;;
47603;SDS011;33326;51.116;6.900;2022-09-09T05:29:23;6.22;;;1.77;;
47603;SDS011;33326;51.116;6.900;2022-09-09T05:34:26;7.85;;;1.75;;
47603;SDS011;33326;51.116;6.900;2022-09-09T05:39:29;6.88;;;2.00;;
47603;SDS011;33326;51.116;6.900;2022-09-09T05:44:33;7.03;;;1.90;;
47603;SDS011;33326;51.116;6.900;2022-09-09T05:49:37;5.20;;;1.50;;
47603;SDS011;33326;51.116;6.900;2022-09-09T05:54:39;8.05;;;2.03;;
47603;SDS011;33326;51.116;6.900;2022-09-09T05:59:42;8.10;;;2.00;;
47603;SDS011;33326;51.116;6.900;2022-09-09T06:04:45;9.20;;;1.85;;
47603;SDS011;33326;51.116;6.900;2022-09-09T06:09:47;7.43;;;1.85;;
47603;SDS011;33326;51.116;6.900;2022-09-09T06:14:51;7.32;;;2.00;;
47603;SDS011;33326;51.116;6.900;2022-09-09T06:19:55;6.85;;;1.52;;
47603;SDS011;33326;51.116;6.900;2022-09-09T06:24:57;6.35;;;1.90;;
47603;SDS011;33326;51.116;6.900;2022-09-09T06:30:02;9.10;;;2.35;;
47603;SDS011;33326;51.116;6.900;2022-09-09T06:35:15;6.28;;;1.95;;
47603;SDS011;33326;51.116;6.900;2022-09-09T06:40:17;6.82;;;1.80;;
47603;SDS011;33326;51.116;6.900;2022-09-09T06:45:20;6.00;;;1.70;;
47603;SDS011;33326;51.116;6.900;2022-09-09T06:50:29;9.57;;;2.38;;
47603;SDS011;33326;51.116;6.900;2022-09-09T06:55:31;5.30;;;1.65;;
47603;SDS011;33326;51.116;6.900;2022-09-09T07:00:34;7.75;;;1.63;;
47603;SDS011;33326;51.116;6.900;2022-09-09T07:05:39;6.82;;;1.83;;
47603;SDS011;33326;51.116;6.900;2022-09-09T07:10:42;7.30;;;1.98;;
47603;SDS011;33326;51.116;6.900;2022-09-09T07:15:44;8.77;;;1.80;;
47603;SDS011;33326;51.116;6.900;2022-09-09T07:20:54;6.82;;;1.65;;
47603;SDS011;33326;51.116;6.900;2022-09-09T07:25:58;6.30;;;1.50;;
47603;SDS011;33326;51.116;6.900;2022-09-09T07:31:01;7.20;;;1.48;;
47603;SDS011;33326;51.116;6.900;2022-09-09T07:36:07;4.60;;;1.42;;
47603;SDS011;33326;51.116;6.900;2022-09-09T07:41:13;9.25;;;1.98;;
47603;SDS011;33326;51.116;6.900;2022-09-09T07:46:18;4.85;;;1.80;;
47603;SDS011;33326;51.116;6.900;2022-09-09T07:51:24;6.45;;;1.52;;
47603;SDS011;33326;51.116;6.900;2022-09-09T07:56:27;7.68;;;2.00;;
47603;SDS011;33326;51.116;6.900;2022-09-09T08:01:33;7.32;;;1.80;;
47603;SDS011;33326;51.116;6.900;2022-09-09T08:06:42;8.68;;;1.60;;
47603;SDS011;33326;51.116;6.900;2022-09-09T08:11:47;5.35;;;1.52;;
47603;SDS011;33326;51.116;6.900;2022-09-09T08:16:51;10.25;;;2.05;;
47603;SDS011;33326;51.116;6.900;2022-09-09T08:21:58;8.35;;;1.67;;
47603;SDS011;33326;51.116;6.900;2022-09-09T08:27:02;7.22;;;1.63;;
47603;SDS011;33326;51.116;6.900;2022-09-09T08:32:05;6.55;;;1.38;;
47603;SDS011;33326;51.116;6.900;2022-09-09T08:37:11;5.50;;;1.45;;
47603;SDS011;33326;51.116;6.900;2022-09-09T08:42:18;6.15;;;1.10;;
47603;SDS011;33326;51.116;6.900;2022-09-09T08:47:41;5.70;;;1.75;;
47603;SDS011;33326;51.116;6.900;2022-09-09T08:52:57;3.67;;;1.50;;
47603;SDS011;33326;51.116;6.900;2022-09-09T08:58:09;7.03;;;1.30;;
47603;SDS011;33326;51.116;6.900;2022-09-09T09:03:15;8.35;;;2.00;;
47603;SDS011;33326;51.116;6.900;2022-09-09T09:08:29;7.22;;;1.33;;
47603;SDS011;33326;51.116;6.900;2022-09-09T09:13:41;6.15;;;1.38;;
47603;SDS011;33326;51.116;6.900;2022-09-09T09:18:49;6.70;;;1.25;;
47603;SDS011;33326;51.116;6.900;2022-09-09T09:23:55;3.70;;;0.95;;
47603;SDS011;33326;51.116;6.900;2022-09-09T09:29:01;4.13;;;0.93;;
47603;SDS011;33326;51.116;6.900;2022-09-09T09:34:09;6.28;;;1.15;;
47603;SDS011;33326;51.116;6.900;2022-09-09T09:39:23;4.75;;;1.30;;
47603;SDS011;33326;51.116;6.900;2022-09-09T09:44:28;5.07;;;1.02;;
47603;SDS011;33326;51.116;6.900;2022-09-09T09:49:50;3.45;;;1.25;;
47603;SDS011;33326;51.116;6.900;2022-09-09T09:54:56;5.15;;;1.27;;
47603;SDS011;33326;51.116;6.900;2022-09-09T10:00:00;5.53;;;1.10;;
47603;SDS011;33326;51.116;6.900;2022-09-09T10:05:16;4.97;;;1.05;;
47603;SDS011;33326;51.116;6.900;2022-09-09T10:10:25;5.70;;;1.33;;
47603;SDS011;33326;51.116;6.900;2022-09-09T10:15:36;4.38;;;1.20;;
47603;SDS011;33326;51.116;6.900;2022-09-09T10:20:44;4.88;;;1.30;;
47603;SDS011;33326;51.116;6.900;2022-09-09T10:26:00;4.10;;;0.98;;
47603;SDS011;33326;51.116;6.900;2022-09-09T10:31:15;4.88;;;1.00;;
47603;SDS011;33326;51.116;6.900;2022-09-09T10:36:23;4.32;;;1.17;;
47603;SDS011;33326;51.116;6.900;2022-09-09T10:41:33;4.18;;;0.90;;
47603;SDS011;33326;51.116;6.900;2022-09-09T10:46:49;2.43;;;0.90;;
47603;SDS011;33326;51.116;6.900;2022-09-09T10:51:59;3.10;;;1.02;;
47603;SDS011;33326;51.116;6.900;2022-09-09T10:57:13;4.72;;;1.17;;
47603;SDS011;33326;51.116;6.900;2022-09-09T11:02:22;5.82;;;1.15;;
47603;SDS011;33326;51.116;6.900;2022-09-09T11:07:29;2.83;;;0.77;;
47603;SDS011;33326;51.116;6.900;2022-09-09T11:12:39;2.83;;;0.95;;
47603;SDS011;33326;51.116;6.900;2022-09-09T11:17:45;2.30;;;0.70;;
47603;SDS011;33326;51.116;6.900;2022-09-09T11:22:51;4.50;;;0.90;;
47603;SDS011;33326;51.116;6.900;2022-09-09T11:28:00;4.63;;;0.85;;
47603;SDS011;33326;51.116;6.900;2022-09-09T11:33:37;2.57;;;0.80;;
47603;SDS011;33326;51.116;6.900;2022-09-09T11:38:51;4.40;;;1.02;;
47603;SDS011;33326;51.116;6.900;2022-09-09T11:43:55;4.65;;;0.80;;
47603;SDS011;33326;51.116;6.900;2022-09-09T11:48:58;6.32;;;1.60;;
47603;SDS011;33326;51.116;6.900;2022-09-09T11:54:02;3.10;;;1.08;;
47603;SDS011;33326;51.116;6.900;2022-09-09T11:59:26;3.72;;;0.90;;
47603;SDS011;33326;51.116;6.900;2022-09-09T12:04:35;5.30;;;1.05;;
47603;SDS011;33326;51.116;6.900;2022-09-09T12:09:43;6.00;;;1.58;;
47603;SDS011;33326;51.116;6.900;2022-09-09T12:14:56;5.55;;;1.67;;
47603;SDS011;33326;51.116;6.900;2022-09-09T12:20:01;3.88;;;1.00;;
47603;SDS011;33326;51.116;6.900;2022-09-09T12:25:14;4.57;;;1.17;;
47603;SDS011;33326;51.116;6.900;2022-09-09T12:30:25;5.88;;;1.13;;
47603;SDS011;33326;51.116;6.900;2022-09-09T12:35:32;4.60;;;1.05;;
47603;SDS011;33326;51.116;6.900;2022-09-09T12:40:34;3.13;;;0.95;;
47603;SDS011;33326;51.116;6.900;2022-09-09T12:45:38;3.60;;;0.80;;
47603;SDS011;33326;51.116;6.900;2022-09-09T12:50:43;4.75;;;1.10;;
47603;SDS011;33326;51.116;6.900;2022-09-09T12:55:49;6.47;;;1.15;;
47603;SDS011;33326;51.116;6.900;2022-09-09T13:00:55;7.97;;;2.42;;
47603;SDS011;33326;51.116;6.900;2022-09-09T13:06:10;5.82;;;1.98;;
47603;SDS011;33326;51.116;6.900;2022-09-09T13:11:15;6.03;;;2.00;;
47603;SDS011;33326;51.116;6.900;2022-09-09T13:16:22;3.83;;;1.23;;
47603;SDS011;33326;51.116;6.900;2022-09-09T13:21:33;3.42;;;1.00;;
47603;SDS011;33326;51.116;6.900;2022-09-09T13:26:35;3.13;;;1.20;;
47603;SDS011;33326;51.116;6.900;2022-09-09T13:31:40;2.80;;;1.13;;
47603;SDS011;33326;51.116;6.900;2022-09-09T13:36:46;4.93;;;1.38;;
47603;SDS011;33326;51.116;6.900;2022-09-09T13:41:49;3.13;;;1.17;;
47603;SDS011;33326;51.116;6.900;2022-09-09T13:47:02;4.07;;;0.88;;
47603;SDS011;33326;51.116;6.900;2022-09-09T13:52:09;2.80;;;1.20;;
47603;SDS011;33326;51.116;6.900;2022-09-09T13:57:14;4.25;;;1.38;;
47603;SDS011;33326;51.116;6.900;2022-09-09T14:02:19;3.15;;;1.10;;
47603;SDS011;33326;51.116;6.900;2022-09-09T14:07:23;4.65;;;1.60;;
47603;SDS011;33326;51.116;6.900;2022-09-09T14:12:25;3.42;;;1.00;;
47603;SDS011;33326;51.116;6.900;2022-09-09T14:17:28;3.75;;;1.30;;
47603;SDS011;33326;51.116;6.900;2022-09-09T14:22:31;3.72;;;1.30;;
47603;SDS011;33326;51.116;6.900;2022-09-09T14:27:33;2.30;;;0.85;;
47603;SDS011;33326;51.116;6.900;2022-09-09T14:32:40;3.80;;;0.98;;
47603;SDS011;33326;51.116;6.900;2022-09-09T14:37:42;4.70;;;0.90;;
47603;SDS011;33326;51.116;6.900;2022-09-09T14:42:44;2.88;;;0.82;;
47603;SDS011;33326;51.116;6.900;2022-09-09T14:47:48;6.00;;;1.20;;
47603;SDS011;33326;51.116;6.900;2022-09-09T14:52:51;3.55;;;1.00;;
47603;SDS011;33326;51.116;6.900;2022-09-09T14:57:53;3.17;;;0.90;;
47603;SDS011;33326;51.116;6.900;2022-09-09T15:02:57;4.93;;;1.15;;
47603;SDS011;33326;51.116;6.900;2022-09-09T15:07:59;2.85;;;1.00;;
47603;SDS011;33326;51.116;6.900;2022-09-09T15:13:00;2.17;;;0.40;;
47603;SDS011;33326;51.116;6.900;2022-09-09T15:18:04;1.80;;;0.60;;
47603;SDS011;33326;51.116;6.900;2022-09-09T15:23:06;3.50;;;0.75;;
47603;SDS011;33326;51.116;6.900;2022-09-09T15:28:09;3.15;;;0.90;;
47603;SDS011;33326;51.116;6.900;2022-09-09T15:33:14;2.15;;;0.80;;
47603;SDS011;33326;51.116;6.900;2022-09-09T15:38:16;1.88;;;0.77;;
47603;SDS011;33326;51.116;6.900;2022-09-09T15:43:19;3.30;;;0.80;;
47603;SDS011;33326;51.116;6.900;2022-09-09T15:48:23;3.08;;;0.95;;
47603;SDS011;33326;51.116;6.900;2022-09-09T15:53:32;2.70;;;1.03;;
47603;SDS011;33326;51.116;6.900;2022-09-09T15:58:34;4.78;;;1.08;;
47603;SDS011;33326;51.116;6.900;2022-09-09T16:03:39;2.72;;;0.75;;
47603;SDS011;33326;51.116;6.900;2022-09-09T16:08:43;3.28;;;1.05;;
47603;SDS011;33326;51.116;6.900;2022-09-09T16:13:46;4.45;;;1.00;;
47603;SDS011;33326;51.116;6.900;2022-09-09T16:18:51;4.53;;;1.02;;
47603;SDS011;33326;51.116;6.900;2022-09-09T16:23:56;3.85;;;1.27;;
47603;SDS011;33326;51.116;6.900;2022-09-09T16:29:00;4.85;;;1.00;;
47603;SDS011;33326;51.116;6.900;2022-09-09T16:34:06;2.88;;;0.75;;
47603;SDS011;33326;51.116;6.900;2022-09-09T16:39:09;2.80;;;0.80;;
47603;SDS011;33326;51.116;6.900;2022-09-09T16:44:12;1.83;;;0.60;;
47603;SDS011;33326;51.116;6.900;2022-09-09T16:49:18;3.58;;;0.82;;
47603;SDS011;33326;51.116;6.900;2022-09-09T16:54:20;1.55;;;0.63;;
47603;SDS011;33326;51.116;6.900;2022-09-09T16:59:25;2.08;;;0.70;;
47603;SDS011;33326;51.116;6.900;2022-09-09T17:04:29;1.83;;;0.73;;
47603;SDS011;33326;51.116;6.900;2022-09-09T17:09:32;3.92;;;1.15;;
47603;SDS011;33326;51.116;6.900;2022-09-09T17:14:34;2.42;;;1.00;;
47603;SDS011;33326;51.116;6.900;2022-09-09T17:19:37;3.08;;;0.98;;
47603;SDS011;33326;51.116;6.900;2022-09-09T17:24:39;5.03;;;0.98;;
47603;SDS011;33326;51.116;6.900;2022-09-09T17:29:41;2.05;;;0.85;;
47603;SDS011;33326;51.116;6.900;2022-09-09T17:34:46;1.88;;;0.70;;
47603;SDS011;33326;51.116;6.900;2022-09-09T17:39:48;4.85;;;1.25;;
47603;SDS011;33326;51.116;6.900;2022-09-09T17:44:50;3.17;;;0.85;;
47603;SDS011;33326;51.116;6.900;2022-09-09T17:49:54;2.55;;;1.17;;
47603;SDS011;33326;51.116;6.900;2022-09-09T17:54:56;3.53;;;1.00;;
47603;SDS011;33326;51.116;6.900;2022-09-09T17:59:58;2.92;;;1.27;;
47603;SDS011;33326;51.116;6.900;2022-09-09T18:05:07;3.92;;;0.82;;
47603;SDS011;33326;51.116;6.900;2022-09-09T18:10:11;5.00;;;1.17;;
47603;SDS011;33326;51.116;6.900;2022-09-09T18:15:13;4.78;;;1.30;;
47603;SDS011;33326;51.116;6.900;2022-09-09T18:20:16;4.50;;;1.25;;
47603;SDS011;33326;51.116;6.900;2022-09-09T18:25:19;3.63;;;1.10;;
47603;SDS011;33326;51.116;6.900;2022-09-09T18:30:21;5.80;;;1.92;;
47603;SDS011;33326;51.116;6.900;2022-09-09T18:35:24;3.95;;;1.35;;
47603;SDS011;33326;51.116;6.900;2022-09-09T18:40:28;5.15;;;1.20;;
47603;SDS011;33326;51.116;6.900;2022-09-09T18:45:33;3.65;;;1.20;;
47603;SDS011;33326;51.116;6.900;2022-09-09T18:50:38;3.30;;;1.20;;
47603;SDS011;33326;51.116;6.900;2022-09-09T18:55:43;7.20;;;1.48;;
47603;SDS011;33326;51.116;6.900;2022-09-09T19:00:45;3.47;;;1.40;;
47603;SDS011;33326;51.116;6.900;2022-09-09T19:05:48;4.10;;;0.98;;
47603;SDS011;33326;51.116;6.900;2022-09-09T19:10:51;2.63;;;1.40;;
47603;SDS011;33326;51.116;6.900;2022-09-09T19:15:53;4.32;;;1.17;;
47603;SDS011;33326;51.116;6.900;2022-09-09T19:21:06;4.68;;;1.40;;
47603;SDS011;33326;51.116;6.900;2022-09-09T19:26:10;5.25;;;1.30;;
47603;SDS011;33326;51.116;6.900;2022-09-09T19:31:16;5.05;;;1.63;;
47603;SDS011;33326;51.116;6.900;2022-09-09T19:36:21;3.90;;;1.40;;
47603;SDS011;33326;51.116;6.900;2022-09-09T19:41:24;3.75;;;1.42;;
47603;SDS011;33326;51.116;6.900;2022-09-09T19:46:28;4.82;;;1.40;;
47603;SDS011;33326;51.116;6.900;2022-09-09T19:51:32;4.55;;;1.48;;
47603;SDS011;33326;51.116;6.900;2022-09-09T19:56:36;3.13;;;1.20;;
47603;SDS011;33326;51.116;6.900;2022-09-09T20:01:40;4.68;;;1.10;;
47603;SDS011;33326;51.116;6.900;2022-09-09T20:06:46;3.00;;;1.30;;
47603;SDS011;33326;51.116;6.900;2022-09-09T20:11:48;4.72;;;1.38;;
47603;SDS011;33326;51.116;6.900;2022-09-09T20:16:51;4.43;;;1.42;;
47603;SDS011;33326;51.116;6.900;2022-09-09T20:21:54;2.67;;;1.50;;
47603;SDS011;33326;51.116;6.900;2022-09-09T20:26:58;4.20;;;1.27;;
47603;SDS011;33326;51.116;6.900;2022-09-09T20:32:00;3.50;;;1.05;;
47603;SDS011;33326;51.116;6.900;2022-09-09T20:37:03;4.07;;;1.02;;
47603;SDS011;33326;51.116;6.900;2022-09-09T20:42:05;3.25;;;1.40;;
47603;SDS011;33326;51.116;6.900;2022-09-09T20:47:08;3.92;;;1.13;;
47603;SDS011;33326;51.116;6.900;2022-09-09T20:52:11;5.47;;;1.67;;
47603;SDS011;33326;51.116;6.900;2022-09-09T20:57:14;4.13;;;1.33;;
47603;SDS011;33326;51.116;6.900;2022-09-09T21:02:21;4.30;;;1.40;;
47603;SDS011;33326;51.116;6.900;2022-09-09T21:07:24;4.90;;;1.50;;
47603;SDS011;33326;51.116;6.900;2022-09-09T21:12:26;9.73;;;1.77;;
47603;SDS011;33326;51.116;6.900;2022-09-09T21:17:29;4.35;;;1.65;;
47603;SDS011;33326;51.116;6.900;2022-09-09T21:22:34;7.10;;;1.63;;
47603;SDS011;33326;51.116;6.900;2022-09-09T21:27:36;3.17;;;1.50;;
47603;SDS011;33326;51.116;6.900;2022-09-09T21:32:38;5.38;;;1.48;;
47603;SDS011;33326;51.116;6.900;2022-09-09T21:37:41;3.35;;;1.25;;
47603;SDS011;33326;51.116;6.900;2022-09-09T21:42:43;5.78;;;1.58;;
47603;SDS011;33326;51.116;6.900;2022-09-09T21:47:45;4.25;;;1.52;;
47603;SDS011;33326;51.116;6.900;2022-09-09T21:52:50;4.25;;;1.58;;
47603;SDS011;33326;51.116;6.900;2022-09-09T21:57:52;5.10;;;2.00;;
47603;SDS011;33326;51.116;6.900;2022-09-09T22:02:54;4.20;;;1.38;;
47603;SDS011;33326;51.116;6.900;2022-09-09T22:07:58;5.40;;;1.25;;
47603;SDS011;33326;51.116;6.900;2022-09-09T22:13:00;3.97;;;1.60;;
47603;SDS011;33326;51.116;6.900;2022-09-09T22:18:02;4.32;;;1.20;;
47603;SDS011;33326;51.116;6.900;2022-09-09T22:23:06;3.92;;;1.02;;
47603;SDS011;33326;51.116;6.900;2022-09-09T22:28:09;5.63;;;1.17;;
47603;SDS011;33326;51.116;6.900;2022-09-09T22:33:11;5.82;;;1.75;;
47603;SDS011;33326;51.116;6.900;2022-09-09T22:38:15;3.17;;;1.17;;
47603;SDS011;33326;51.116;6.900;2022-09-09T22:43:19;10.13;;;1.80;;
47603;SDS011;33326;51.116;6.900;2022-09-09T22:48:22;4.30;;;1.70;;
47603;SDS011;33326;51.116;6.900;2022-09-09T22:53:25;7.43;;;1.95;;
47603;SDS011;33326;51.116;6.900;2022-09-09T22:58:28;4.20;;;1.52;;
47603;SDS011;33326;51.116;6.900;2022-09-09T23:03:32;4.00;;;1.38;;
47603;SDS011;33326;51.116;6.900;2022-09-09T23:08:36;3.60;;;1.45;;
47603;SDS011;33326;51.116;6.900;2022-09-09T23:13:39;6.57;;;1.65;;
47603;SDS011;33326;51.116;6.900;2022-09-09T23:18:42;3.95;;;1.17;;
47603;SDS011;33326;51.116;6.900;2022-09-09T23:23:46;6.78;;;1.30;;
47603;SDS011;33326;51.116;6.900;2022-09-09T23:28:49;8.70;;;1.52;;
47603;SDS011;33326;51.116;6.900;2022-09-09T23:33:52;3.15;;;1.42;;
47603;SDS011;33326;51.116;6.900;2022-09-09T23:38:56;6.10;;;1.40;;
47603;SDS011;33326;51.116;6.900;2022-09-09T23:43:58;4.18;;;1.42;;
47603;SDS011;33326;51.116;6.900;2022-09-09T23:49:01;4.32;;;1.42;;
47603;SDS011;33326;51.116;6.900;2022-09-09T23:54:05;6.00;;;1.67;;
47603;SDS011;33326;51.116;6.900;2022-09-09T23:59:09;3.25;;;1.10;;
